createdAt,value
2022-10-18T00:00:52.174Z,33.40
2022-10-18T00:06:11.251Z,30.50
2022-10-18T00:11:14.460Z,34.20
2022-10-18T00:16:19.623Z,35.70
2022-10-18T00:21:24.492Z,35.70
2022-10-18T00:26:29.515Z,31.60
2022-10-18T00:31:35.787Z,35.80
2022-10-18T00:36:39.052Z,34.80
2022-10-18T00:41:42.484Z,35.80
2022-10-18T00:46:49.433Z,36.80
2022-10-18T00:52:06.067Z,36.00
2022-10-18T00:57:10.621Z,35.20
2022-10-18T01:02:18.577Z,37.00
2022-10-18T01:07:28.080Z,34.50
2022-10-18T01:13:06.662Z,37.80
2022-10-18T01:18:22.749Z,37.50
2022-10-18T01:23:44.709Z,39.10
2022-10-18T01:29:07.049Z,40.60
2022-10-18T01:34:15.634Z,34.20
2022-10-18T01:39:31.701Z,34.80
2022-10-18T01:44:37.035Z,33.10
2022-10-18T01:49:42.608Z,34.60
2022-10-18T01:54:51.446Z,35.40
2022-10-18T02:00:03.512Z,38.10
2022-10-18T02:05:17.143Z,34.50
2022-10-18T02:11:01.513Z,39.00
2022-10-18T02:16:09.624Z,36.80
2022-10-18T02:21:17.511Z,40.60
2022-10-18T02:26:20.750Z,32.40
2022-10-18T02:31:32.468Z,39.50
2022-10-18T02:36:41.003Z,40.80
2022-10-18T02:41:44.585Z,39.90
2022-10-18T02:46:48.485Z,41.80
2022-10-18T02:51:51.604Z,33.70
2022-10-18T02:56:54.784Z,40.70
2022-10-18T03:01:57.929Z,44.00
2022-10-18T03:07:01.626Z,50.10
2022-10-18T03:12:05.049Z,47.30
2022-10-18T03:17:08.531Z,53.00
2022-10-18T03:22:11.711Z,74.70
2022-10-18T03:27:14.893Z,91.20
2022-10-18T03:32:18.009Z,88.00
2022-10-18T03:37:21.114Z,85.40
2022-10-18T03:42:24.319Z,94.50
2022-10-18T03:47:27.502Z,85.40
2022-10-18T03:52:31.009Z,81.90
2022-10-18T03:57:35.185Z,89.90
2022-10-18T04:02:38.632Z,77.60
2022-10-18T04:07:41.866Z,79.20
2022-10-18T04:12:45.031Z,65.70
2022-10-18T04:17:48.251Z,64.10
2022-10-18T04:22:57.970Z,69.10
2022-10-18T04:28:01.791Z,84.00
2022-10-18T04:33:04.920Z,94.40
2022-10-18T04:38:09.596Z,81.50
2022-10-18T04:43:12.805Z,67.60
2022-10-18T04:48:16.050Z,52.00
2022-10-18T04:53:19.783Z,60.70
2022-10-18T04:58:22.977Z,59.80
2022-10-18T05:03:26.539Z,54.10
2022-10-18T05:08:30.844Z,51.00
2022-10-18T05:13:34.347Z,49.40
2022-10-18T05:18:37.723Z,50.80
2022-10-18T05:23:41.174Z,40.60
2022-10-18T05:28:44.859Z,55.30
2022-10-18T05:33:48.820Z,57.10
2022-10-18T05:38:53.113Z,55.60
2022-10-18T05:43:56.493Z,52.30
2022-10-18T05:48:59.754Z,49.30
2022-10-18T05:54:02.969Z,56.80
2022-10-18T05:59:10.538Z,67.40
2022-10-18T06:04:13.860Z,61.50
2022-10-18T06:09:17.219Z,55.90
2022-10-18T06:14:20.860Z,46.80
2022-10-18T06:19:24.399Z,45.00
2022-10-18T06:24:28.075Z,39.70
2022-10-18T06:29:31.275Z,53.20
2022-10-18T06:34:35.691Z,60.30
2022-10-18T06:39:39.016Z,54.80
2022-10-18T06:44:42.260Z,49.60
2022-10-18T06:49:45.411Z,49.70
2022-10-18T06:54:48.593Z,48.40
2022-10-18T06:59:52.350Z,49.90
2022-10-18T07:05:01.705Z,41.10
2022-10-18T07:10:14.795Z,39.70
2022-10-18T07:20:40.788Z,54.90
2022-10-18T07:25:44.151Z,40.00
2022-10-18T07:30:47.620Z,33.70
2022-10-18T07:35:51.029Z,31.60
2022-10-18T07:41:03.228Z,30.40
2022-10-18T07:46:16.368Z,31.40
2022-10-18T07:51:21.164Z,31.50
2022-10-18T07:56:24.427Z,32.40
2022-10-18T08:01:27.680Z,28.20
2022-10-18T08:06:30.983Z,32.10
2022-10-18T08:11:38.940Z,33.20
2022-10-18T08:16:46.746Z,32.80
2022-10-18T08:21:50.278Z,35.20
2022-10-18T08:26:53.459Z,29.20
2022-10-18T08:31:56.710Z,31.10
2022-10-18T08:36:59.940Z,33.70
2022-10-18T08:42:20.137Z,37.00
2022-10-18T08:47:36.921Z,38.40
2022-10-18T08:52:51.784Z,31.70
2022-10-18T08:57:58.976Z,25.40
2022-10-18T09:03:59.605Z,26.70
2022-10-18T09:09:05.839Z,27.40
2022-10-18T09:14:43.249Z,23.70
2022-10-18T09:20:03.553Z,25.20
2022-10-18T09:25:20.713Z,20.70
2022-10-18T09:30:41.627Z,20.00
2022-10-18T09:35:52.659Z,19.50
2022-10-18T09:41:05.772Z,16.90
2022-10-18T09:46:11.957Z,16.60
2022-10-18T09:51:23.519Z,17.30
2022-10-18T09:56:48.506Z,17.90
2022-10-18T10:01:56.037Z,12.80
2022-10-18T10:07:10.073Z,13.70
2022-10-18T10:12:31.017Z,16.60
2022-10-18T10:17:35.159Z,16.90
2022-10-18T10:22:40.980Z,17.10
2022-10-18T10:27:47.529Z,16.70
2022-10-18T10:32:52.478Z,17.60
2022-10-18T10:37:55.718Z,17.00
2022-10-18T10:43:36.522Z,18.20
2022-10-18T10:48:59.523Z,16.90
2022-10-18T10:54:13.394Z,16.40
2022-10-18T10:59:20.692Z,16.00
2022-10-18T11:04:30.645Z,25.80
2022-10-18T11:09:49.514Z,18.40
2022-10-18T11:15:29.042Z,20.80
2022-10-18T11:20:57.772Z,15.10
2022-10-18T11:26:30.727Z,14.20
2022-10-18T11:31:39.729Z,17.10
2022-10-18T11:37:25.902Z,15.00
2022-10-18T11:42:54.021Z,13.60
2022-10-18T11:48:15.744Z,15.80
2022-10-18T11:54:04.263Z,15.80
2022-10-18T11:59:29.074Z,14.20
2022-10-18T12:04:49.022Z,16.60
2022-10-18T12:10:04.900Z,18.20
2022-10-18T12:15:08.199Z,16.50
2022-10-18T12:20:21.180Z,17.60
2022-10-18T12:25:25.440Z,18.70
2022-10-18T12:30:42.539Z,19.30
2022-10-18T12:36:17.800Z,16.40
2022-10-18T12:41:29.522Z,21.50
2022-10-18T12:46:54.339Z,14.90
2022-10-18T12:52:01.310Z,16.70
2022-10-18T12:57:17.652Z,19.90
2022-10-18T13:02:27.215Z,16.80
2022-10-18T13:07:41.488Z,25.60
2022-10-18T13:12:57.363Z,33.40
2022-10-18T13:18:10.548Z,27.40
2022-10-18T13:23:19.608Z,26.90
2022-10-18T13:28:48.861Z,23.20
2022-10-18T13:33:52.407Z,27.80
2022-10-18T13:38:58.398Z,24.10
2022-10-18T13:44:23.216Z,22.40
2022-10-18T13:49:41.828Z,19.30
2022-10-18T13:55:06.499Z,20.60
2022-10-18T14:00:49.150Z,18.40
2022-10-18T14:06:10.261Z,23.00
2022-10-18T14:11:23.861Z,28.50
2022-10-18T14:16:36.023Z,30.10
2022-10-18T14:21:48.066Z,29.00
2022-10-18T14:27:20.708Z,29.70
2022-10-18T14:32:32.553Z,22.70
2022-10-18T14:37:37.072Z,23.80
2022-10-18T14:42:49.056Z,23.30
2022-10-18T14:47:52.210Z,24.10
2022-10-18T14:52:55.384Z,26.90
2022-10-18T14:57:58.656Z,37.60
2022-10-18T15:03:07.604Z,32.00
2022-10-18T15:08:10.801Z,22.00
2022-10-18T15:13:16.019Z,29.00
2022-10-18T15:18:25.942Z,26.00
2022-10-18T15:23:32.604Z,28.00
2022-10-18T15:28:51.189Z,24.20
2022-10-18T15:34:08.654Z,22.40
2022-10-18T15:39:16.849Z,32.80
2022-10-18T15:44:46.706Z,38.90
2022-10-18T15:49:56.842Z,36.50
2022-10-18T15:55:00.830Z,37.50
2022-10-18T16:00:22.749Z,39.10
2022-10-18T16:05:26.570Z,48.30
2022-10-18T16:10:29.761Z,51.40
2022-10-18T16:15:33.167Z,49.00
2022-10-18T16:20:36.345Z,51.30
2022-10-18T16:25:39.422Z,46.90
2022-10-18T16:30:47.450Z,56.30
2022-10-18T16:35:50.707Z,41.30
2022-10-18T16:40:54.008Z,58.30
2022-10-18T16:45:57.451Z,54.20
2022-10-18T16:51:02.273Z,47.30
2022-10-18T16:56:11.296Z,42.40
2022-10-18T17:01:16.813Z,35.80
2022-10-18T17:06:23.163Z,40.50
2022-10-18T17:11:28.796Z,44.80
2022-10-18T17:16:34.411Z,34.90
2022-10-18T17:21:38.028Z,34.90
2022-10-18T17:26:41.155Z,35.80
2022-10-18T17:31:44.441Z,28.60
2022-10-18T17:36:47.585Z,36.50
2022-10-18T17:41:51.073Z,30.80
2022-10-18T17:46:54.560Z,32.40
2022-10-18T17:51:57.947Z,30.40
2022-10-18T17:57:01.211Z,38.00
2022-10-18T18:02:04.377Z,36.60
2022-10-18T18:07:07.551Z,41.40
2022-10-18T18:12:10.687Z,32.20
2022-10-18T18:17:14.153Z,34.40
2022-10-18T18:22:17.224Z,33.40
2022-10-18T18:27:20.439Z,28.20
2022-10-18T18:32:23.893Z,28.70
2022-10-18T18:37:27.365Z,26.50
2022-10-18T18:42:30.548Z,32.80
2022-10-18T18:47:36.233Z,30.90
2022-10-18T18:52:39.333Z,33.20
2022-10-18T18:57:42.443Z,26.70
2022-10-18T19:02:45.511Z,27.50
2022-10-18T19:07:48.630Z,25.50
2022-10-18T19:12:51.712Z,24.00
2022-10-18T19:17:56.345Z,20.40
2022-10-18T19:22:59.563Z,21.80
2022-10-18T19:28:02.706Z,24.30
2022-10-18T19:33:05.824Z,19.80
2022-10-18T19:38:08.971Z,22.90
2022-10-18T19:43:12.180Z,21.70
2022-10-18T19:48:15.300Z,21.10
2022-10-18T19:53:18.913Z,17.50
2022-10-18T19:58:25.112Z,16.50
2022-10-18T20:03:32.091Z,18.70
2022-10-18T20:08:36.503Z,14.00
2022-10-18T20:13:39.943Z,14.90
2022-10-18T20:18:45.977Z,16.10
2022-10-18T20:23:49.060Z,13.20
2022-10-18T20:28:56.985Z,12.90
2022-10-18T20:34:03.234Z,14.20
2022-10-18T20:39:07.165Z,18.40
2022-10-18T20:44:14.936Z,17.00
2022-10-18T20:49:18.324Z,21.00
2022-10-18T20:54:21.485Z,15.40
2022-10-18T20:59:25.274Z,18.60
2022-10-18T21:04:28.648Z,19.00
2022-10-18T21:09:32.245Z,20.20
2022-10-18T21:14:35.399Z,20.30
2022-10-18T21:19:38.565Z,20.60
2022-10-18T21:24:42.752Z,20.00
2022-10-18T21:29:45.910Z,21.00
2022-10-18T21:34:48.982Z,20.00
2022-10-18T21:39:52.093Z,18.90
2022-10-18T21:44:55.283Z,19.00
2022-10-18T21:49:58.584Z,26.00
2022-10-18T21:55:01.657Z,21.30
2022-10-18T22:00:06.796Z,18.70
2022-10-18T22:05:12.101Z,18.70
2022-10-18T22:10:15.598Z,17.40
2022-10-18T22:15:18.662Z,15.00
2022-10-18T22:20:22.028Z,18.80
2022-10-18T22:25:25.134Z,13.70
2022-10-18T22:30:28.235Z,16.50
2022-10-18T22:35:34.794Z,15.80
2022-10-18T22:40:38.020Z,16.90
2022-10-18T22:45:41.265Z,26.20
2022-10-18T22:50:44.401Z,19.30
2022-10-18T22:55:51.447Z,16.00
2022-10-18T23:01:07.300Z,12.50
2022-10-18T23:06:23.469Z,13.20
2022-10-18T23:11:28.509Z,15.60
2022-10-18T23:16:32.089Z,15.10
2022-10-18T23:21:35.333Z,14.90
2022-10-18T23:26:38.407Z,14.60
2022-10-18T23:31:41.519Z,13.00
2022-10-18T23:41:52.683Z,15.80
2022-10-18T23:46:55.853Z,12.70
2022-10-18T23:51:58.978Z,19.50
2022-10-18T23:57:02.218Z,20.60
